Latest Weather Observations for Mount Magnet Airport

IDW60801

Issued at 10:33 am WST Thursday 18 July 2019 (issued every 10 minutes, with the page automatically refreshed every 10 minutes)

About weather observations | Map of weather stations | Latest weather observations for WA | Other Formats
Station Details ID: 007600 Name: MOUNT MAGNET AERO Lat: -28.12 Lon: 117.84 Height: 407.0 m
Data from the previous 72 hours. | See also: Recent months at Mount Magnet Airport
Date/Time
WST
Temp
°C
App
Temp
°C
Dew
Point
°C
Rel
Hum
%
Delta-T
°C
Wind Press
QNH
hPa
Press
MSL
hPa
Rain since
9am
mm
Dir  Spd
km/h
Gust
km/h
Spd
kts
Gust
kts
18/10:30am 18.8 14.6 -1.1 26 8.7 ENE 11 17 6 9 1022.0 1021.7 0.0
18/10:00am 17.5 13.3 -0.7 29 7.9 ENE 11 15 6 8 1022.1 1021.8 0.0
18/09:30am 15.6 11.6 0.6 36 6.6 NE 11 13 6 7 1022.0 1021.7 0.0
18/09:00am 13.5 9.5 0.5 41 5.6 NE 11 13 6 7 1022.0 1021.7 0.0
18/08:30am 11.7 8.7 1.9 51 4.3 NNE 7 11 4 6 1021.9 1021.6 0.0
18/08:00am 9.5 6.5 1.7 58 3.3 NNE 7 9 4 5 1021.9 1021.6 0.0
18/07:30am 7.1 3.8 2.2 71 2.1 NNE 9 11 5 6 1021.5 1021.3 0.0
18/07:00am 5.4 2.4 2.1 79 1.4 N 7 9 4 5 1021.5 1021.3 0.0
18/06:30am 6.1 2.8 2.7 79 1.4 N 9 9 5 5 1021.3 1021.1 0.0
18/06:00am 5.7 2.9 2.9 82 1.2 N 7 7 4 4 1021.2 1021.0 0.0
18/05:30am 6.1 3.4 2.7 79 1.4 N 6 7 3 4 1021.0 1020.8 0.0
18/05:00am 6.8 3.8 2.3 73 1.9 N 7 9 4 5 1021.1 1020.9 0.0
18/04:30am 6.5 3.2 2.2 74 1.8 NNE 9 11 5 6 1021.0 1020.8 0.0
18/04:00am 7.4 4.0 2.1 69 2.2 N 9 11 5 6 1021.2 1021.0 0.0
18/03:30am 7.4 3.7 2.3 70 2.2 NNE 11 13 6 7 1021.1 1020.9 0.0
18/03:00am 7.6 4.7 2.5 70 2.2 NNW 7 9 4 5 1021.2 1021.0 0.0
18/02:30am 7.7 5.0 2.8 71 2.1 WNW 6 7 3 4 1021.4 1021.2 0.0
18/02:00am 8.6 5.9 3.8 72 2.1 WNW 7 9 4 5 1021.8 1021.5 0.0
18/01:30am 8.5 5.9 4.1 74 2.0 WNW 7 9 4 5 1022.0 1021.7 0.0
18/01:00am 9.1 7.8 3.9 70 2.3 CALM 0 0 0 0 1022.1 1021.8 0.0
18/12:30am 8.7 6.9 3.5 70 2.3 W 2 4 1 2 1022.1 1021.8 0.0
18/12:00am 9.3 6.6 3.7 68 2.5 W 7 7 4 4 1022.2 1021.9 0.0
 
Date/Time
WST
Temp
°C
App
Temp
°C
Dew
Point
°C
Rel
Hum
%
Delta-T
°C
Wind Press
QNH
hPa
Press
MSL
hPa
Rain since
9am
mm
Dir  Spd
km/h
Gust
km/h
Spd
kts
Gust
kts
17/11:30pm 9.7 7.1 3.4 65 2.8 W 6 6 3 3 1022.3 1022.0 0.0
17/11:00pm 11.9 8.9 2.1 51 4.3 W 7 9 4 5 1022.5 1022.2 0.0
17/10:30pm 12.1 8.4 2.6 52 4.2 WSW 11 11 6 6 1022.5 1022.2 0.0
17/10:00pm 11.8 8.6 3.3 56 3.8 W 9 11 5 6 1022.5 1022.2 0.0
17/09:30pm 11.4 8.5 4.8 64 3.1 WSW 9 9 5 5 1022.6 1022.3 0.0
17/09:00pm 12.9 10.7 6.3 64 3.2 SW 7 7 4 4 1022.5 1022.2 0.0
17/08:30pm 12.8 11.3 2.9 51 4.5 CALM 0 0 0 0 1022.4 1022.1 0.0
17/08:00pm 13.9 11.0 2.8 47 5.0 W 7 9 4 5 1022.3 1022.0 0.0
17/07:30pm 13.5 10.7 3.0 49 4.8 N 7 9 4 5 1022.2 1021.9 0.0
17/07:00pm 15.0 12.5 1.5 40 6.0 N 4 6 2 3 1022.0 1021.7 0.0
17/06:30pm 17.1 14.5 3.4 40 6.5 N 6 7 3 4 1021.8 1021.5 0.0
17/06:00pm 19.3 17.3 -0.1 27 8.7 CALM 0 0 0 0 1021.4 1021.2 0.0
17/05:30pm 21.4 17.9 -1.2 22 10.1 NNE 7 7 4 4 1021.3 1021.1 0.0
17/05:00pm 22.4 18.4 -2.3 19 10.8 NNE 9 11 5 6 1021.3 1021.1 0.0
17/04:30pm 22.9 18.5 -2.6 18 11.2 NNE 11 15 6 8 1021.4 1021.2 0.0
17/04:00pm 23.0 18.5 -3.3 17 11.4 NNE 11 17 6 9 1021.5 1021.3 0.0
17/03:30pm 23.0 18.6 -2.6 18 11.3 NNE 11 15 6 8 1021.7 1021.4 0.0
17/03:00pm 22.9 19.1 -0.6 21 10.7 NNE 9 19 5 10 1021.8 1021.5 0.0
17/02:30pm 22.9 18.4 -0.6 21 10.7 NNW 13 20 7 11 1021.9 1021.6 0.0
17/02:00pm 22.0 17.4 -1.3 21 10.4 NNE 13 20 7 11 1022.1 1021.8 0.0
17/01:30pm 21.5 16.7 0.1 24 9.8 N 15 22 8 12 1022.4 1022.1 0.0
17/01:00pm 20.7 15.6 0.5 26 9.2 N 17 22 9 12 1022.8 1022.6 0.0
17/12:30pm 20.2 15.1 0.6 27 9.0 NNE 17 22 9 12 1023.5 1023.3 0.0
17/12:00pm 19.8 14.3 0.8 28 8.7 NNE 19 24 10 13 1024.1 1023.9 0.0
17/11:30am 19.2 13.5 0.3 28 8.5 NNE 20 28 11 15 1024.7 1024.4 0.0
17/11:00am 18.4 12.7 0.5 30 8.0 NE 20 26 11 14 1025.1 1024.9 0.0
17/10:30am 17.8 12.2 1.3 33 7.5 NE 20 30 11 16 1025.6 1025.4 0.0
17/10:00am 16.6 11.6 1.5 36 6.8 NNE 17 24 9 13 1025.7 1025.5 0.0
17/09:30am 14.8 9.5 1.7 41 5.9 NNE 19 26 10 14 1025.8 1025.6 0.0
17/09:00am 13.5 8.1 1.5 44 5.3 NNE 19 28 10 15 1025.8 1025.6 0.0
17/08:30am 12.2 7.9 0.9 46 4.9 NE 13 19 7 10 1025.7 1025.5 0.0
17/08:00am 10.6 6.7 1.4 53 3.9 NE 11 13 6 7 1025.4 1025.2 0.0
17/07:30am 6.8 4.1 2.5 74 1.8 NNE 6 7 3 4 1025.1 1024.9 0.0
17/07:00am 5.6 2.8 2.3 79 1.4 NNE 6 7 3 4 1024.9 1024.6 0.0
17/06:30am 5.8 2.9 1.5 74 1.8 NE 6 7 3 4 1024.6 1024.3 0.0
17/06:00am 7.5 3.7 1.6 66 2.4 NE 11 13 6 7 1024.5 1024.2 0.0
17/05:30am 7.3 4.2 1.2 65 2.5 NE 7 9 4 5 1024.6 1024.3 0.0
17/05:00am 8.1 5.0 1.3 62 2.8 NE 7 9 4 5 1024.6 1024.3 0.0
17/04:30am 7.9 5.0 1.5 64 2.7 NE 6 7 3 4 1024.6 1024.3 0.0
17/04:00am 7.4 4.8 3.1 74 1.8 NE 6 7 3 4 1024.7 1024.4 0.0
17/03:30am 7.2 4.9 2.5 72 2.0 S 4 6 2 3 1025.0 1024.8 0.0
17/03:00am 7.1 3.8 2.2 71 2.1 SSE 9 9 5 5 1025.1 1024.9 0.0
17/02:30am 8.3 4.9 1.7 63 2.8 ENE 9 11 5 6 1025.0 1024.8 0.0
17/02:00am 8.4 5.0 1.8 63 2.8 NE 9 11 5 6 1025.3 1025.1 0.0
17/01:30am 7.9 4.5 2.0 66 2.5 ENE 9 11 5 6 1025.7 1025.5 0.0
17/01:00am 8.2 5.5 2.7 68 2.4 ENE 6 7 3 4 1026.0 1025.8 0.0
17/12:30am 8.7 5.0 2.1 63 2.8 ENE 11 13 6 7 1026.1 1025.9 0.0
17/12:00am 8.3 5.1 3.0 69 2.3 ENE 9 11 5 6 1026.3 1026.1 0.0
 
Date/Time
WST
Temp
°C
App
Temp
°C
Dew
Point
°C
Rel
Hum
%
Delta-T
°C
Wind Press
QNH
hPa
Press
MSL
hPa
Rain since
9am
mm
Dir  Spd
km/h
Gust
km/h
Spd
kts
Gust
kts
16/11:30pm 8.2 7.0 4.4 77 1.7 CALM 0 0 0 0 1026.7 1026.5 0.0
16/11:00pm 8.8 7.6 4.4 74 2.0 CALM 0 0 0 0 1026.7 1026.5 0.0
16/10:30pm 9.3 6.6 2.4 62 3.0 ESE 6 6 3 3 1027.1 1026.9 0.0
16/10:00pm 10.1 7.3 2.2 58 3.4 ESE 6 7 3 4 1027.2 1027.0 0.0
16/09:30pm 10.4 7.6 2.0 56 3.6 ESE 6 7 3 4 1027.2 1027.0 0.0
16/09:00pm 11.2 8.2 2.0 53 4.0 ESE 7 7 4 4 1027.1 1026.9 0.0
16/08:30pm 11.5 8.2 2.3 53 4.1 ESE 9 11 5 6 1027.0 1026.7 0.0
16/08:00pm 12.7 9.4 2.6 50 4.5 SE 9 11 5 6 1026.9 1026.6 0.0
16/07:30pm 13.8 10.9 2.7 47 5.0 SE 7 11 4 6 1026.7 1026.5 0.0
16/07:00pm 14.6 12.1 3.7 48 5.1 SE 6 7 3 4 1026.6 1026.4 0.0
16/06:30pm 15.7 12.7 2.2 40 6.2 ESE 7 9 4 5 1026.4 1026.2 0.0
16/06:00pm 17.2 13.9 0.4 32 7.4 ESE 7 7 4 4 1026.2 1026.0 0.0
16/05:30pm 18.4 14.9 1.0 31 7.9 ESE 9 11 5 6 1026.1 1025.9 0.0
16/05:00pm 19.5 15.4 0.0 27 8.7 SE 11 15 6 8 1026.0 1025.8 0.0
16/04:30pm 20.2 16.6 0.6 27 9.0 E 9 13 5 7 1025.9 1025.7 0.0
16/04:00pm 20.1 16.5 0.5 27 8.9 E 9 13 5 7 1026.0 1025.8 0.0
16/03:30pm 19.5 15.8 0.0 27 8.8 ESE 9 15 5 8 1026.1 1025.9 0.0
16/03:00pm 19.4 15.1 0.9 29 8.4 NE 13 19 7 10 1026.3 1026.1 0.0
16/02:30pm 19.5 15.5 0.5 28 8.6 E 11 17 6 9 1026.4 1026.2 0.0
16/02:00pm 19.2 14.5 0.8 29 8.3 ENE 15 22 8 12 1026.5 1026.3 0.0
16/01:30pm 19.2 14.2 1.2 30 8.3 NE 17 24 9 13 1026.7 1026.5 0.0
16/01:00pm 18.6 13.2 1.2 31 7.9 NE 19 28 10 15 1027.3 1027.1 0.0
16/12:30pm 18.0 12.7 1.9 34 7.4 NE 19 24 10 13 1027.8 1027.6 0.0
16/12:00pm 17.4 12.2 2.6 37 6.8 NE 19 26 10 14 1028.4 1028.2 0.0
16/11:30am 16.8 11.7 3.1 40 6.4 NE 19 26 10 14 1029.0 1028.8 0.0
16/11:00am 16.5 11.6 3.9 43 5.9 NE 19 26 10 14 1029.3 1029.2 0.0
16/10:30am 15.1 9.9 3.6 46 5.4 NE 20 28 11 15 1029.7 1029.5 0.0
16/10:00am 14.1 9.5 3.8 50 4.8 NE 17 24 9 13 1030.0 1029.8 0.0
16/09:30am 12.8 8.3 4.3 56 4.0 NE 17 24 9 13 1030.1 1029.9 0.0
16/09:00am 11.5 6.9 3.8 59 3.5 NE 17 22 9 12 1030.3 1030.1 0.0
16/08:30am 9.5 6.8 3.7 67 2.6 ENE 7 9 4 5 1030.2 1030.0 0.0
16/08:00am 6.7 5.3 3.5 80 1.4 CALM 0 0 0 0 1030.1 1029.9 0.0
16/07:30am 5.1 3.6 3.0 86 0.9 CALM 0 0 0 0 1029.8 1029.6 0.0
16/07:00am 4.8 2.1 2.5 85 0.9 ENE 6 7 3 4 1029.3 1029.2 0.0
16/06:30am 4.6 1.3 2.3 85 0.9 NE 9 11 5 6 1029.1 1029.0 0.0
16/06:00am 4.9 1.6 2.6 85 1.0 ENE 9 9 5 5 1028.9 1028.7 0.0
16/05:30am 6.0 3.3 2.8 80 1.4 ENE 6 6 3 3 1028.8 1028.6 0.0
16/05:00am 5.6 1.9 2.6 81 1.2 ENE 11 11 6 6 1028.7 1028.5 0.0
16/04:30am 6.0 2.7 2.5 78 1.5 E 9 11 5 6 1028.6 1028.4 0.0
16/04:00am 6.5 2.9 2.8 77 1.6 E 11 11 6 6 1028.6 1028.4 0.0
16/03:30am 7.0 4.1 2.5 73 1.9 E 7 9 4 5 1028.6 1028.4 0.0
16/03:00am 7.6 4.3 2.7 71 2.1 E 9 11 5 6 1028.7 1028.5 0.0
16/02:30am 8.3 4.7 3.0 69 2.3 E 11 13 6 7 1028.7 1028.5 0.0
16/02:00am 8.6 5.0 2.8 67 2.5 E 11 13 6 7 1028.7 1028.5 0.0
16/01:30am 8.6 4.6 2.8 67 2.5 ENE 13 15 7 8 1028.7 1028.5 0.0
16/01:00am 9.4 5.4 2.9 64 2.8 E 13 17 7 9 1028.8 1028.6 0.0
16/12:30am 9.0 5.4 2.8 65 2.7 E 11 13 6 7 1028.9 1028.7 0.0
16/12:00am 9.2 5.6 2.8 64 2.8 E 11 13 6 7 1029.1 1029.0 0.0
 
Date/Time
WST
Temp
°C
App
Temp
°C
Dew
Point
°C
Rel
Hum
%
Delta-T
°C
Wind Press
QNH
hPa
Press
MSL
hPa
Rain since
9am
mm
Dir  Spd
km/h
Gust
km/h
Spd
kts
Gust
kts
15/11:30pm 9.2 5.6 2.8 64 2.8 E 11 15 6 8 1029.2 1029.1 0.0
15/11:00pm 8.3 5.1 3.0 69 2.3 E 9 13 5 7 1029.3 1029.2 0.0
15/10:30pm 8.2 4.7 3.3 71 2.1 E 11 11 6 6 1029.2 1029.1 0.0
15/10:00pm 9.0 6.2 3.0 66 2.6 ESE 7 7 4 4 1029.2 1029.1 0.0
15/09:30pm 10.0 7.2 3.3 63 3.0 ESE 7 9 4 5 1029.1 1029.0 0.0
15/09:00pm 10.6 7.5 3.4 61 3.2 ESE 9 11 5 6 1028.9 1028.7 0.0
15/08:30pm 11.4 8.2 3.2 57 3.7 ESE 9 11 5 6 1028.7 1028.5 0.0
15/08:00pm 12.3 8.7 3.0 53 4.2 ESE 11 13 6 7 1028.6 1028.4 0.0
15/07:30pm 13.2 9.6 3.0 50 4.6 ESE 11 13 6 7 1028.4 1028.2 0.0
15/07:00pm 14.0 10.4 2.9 47 5.0 SE 11 15 6 8 1028.2 1028.0 0.0
15/06:30pm 14.7 11.1 3.2 46 5.3 SSE 11 13 6 7 1028.0 1027.8 0.0
15/06:00pm 16.0 12.8 2.8 41 6.1 SE 9 11 5 6 1027.6 1027.4 0.0
15/05:30pm 17.4 13.6 1.8 35 7.2 ESE 11 15 6 8 1027.2 1027.0 0.0
15/05:00pm 18.4 13.4 1.4 32 7.7 E 17 20 9 11 1027.0 1026.7 0.0
15/04:30pm 18.7 13.4 1.7 32 7.9 E 19 24 10 13 1026.9 1026.6 0.0
15/04:00pm 18.8 14.2 1.8 32 7.8 ESE 15 20 8 11 1027.0 1026.7 0.0
15/03:30pm 18.8 13.5 1.8 32 7.9 E 19 24 10 13 1027.0 1026.7 0.0
15/03:00pm 18.5 14.0 1.9 33 7.6 E 15 26 8 14 1027.1 1026.9 0.0
15/02:30pm 18.1 12.9 2.4 35 7.3 ESE 19 30 10 16 1027.3 1027.1 0.0
15/02:00pm 18.1 12.8 1.6 33 7.5 E 19 28 10 15 1027.5 1027.3 0.0
15/01:30pm 17.7 12.4 1.7 34 7.3 ENE 19 28 10 15 1027.7 1027.5 0.0
15/01:00pm 17.5 12.3 2.3 36 7.0 ENE 19 28 10 15 1028.2 1028.0 0.0
15/12:30pm 17.1 11.9 2.3 37 6.8 ENE 19 24 10 13 1028.8 1028.6 0.0
15/12:00pm 16.1 10.8 2.9 41 6.1 ENE 20 30 11 16 1029.6 1029.4 0.0
15/11:30am 15.8 10.6 3.6 44 5.7 ENE 20 30 11 16 1030.3 1030.1 0.0
15/11:00am 14.7 9.4 3.2 46 5.3 ENE 20 30 11 16 1030.8 1030.6 0.0

Other formats

Comma delimited format used in spreadsheet applications
http://www.bom.gov.au/fwo/IDW60801/IDW60801.94429.axf

JavaScript Object Notation format (JSON) in row-major order
http://www.bom.gov.au/fwo/IDW60801/IDW60801.94429.json

Data quality

Most of these data are generated automatically and are frequently updated. Quality checks on data are not normally performed. It is possible for incorrect values to appear. Refer to information at About Latest Weather Observations and please check the disclaimer before using these data.